Time;durP1;ratioP1;P1;durP2;ratioP2;P2;SDS_P1;SDS_P2;PMS_P1;PMS_P2;Temp;Humidity;BMP_temperature;BMP_pressure;BME280_temperature;BME280_humidity;BME280_pressure;Samples;Min_cycle;Max_cycle;Signal;HPM_P1;HPM_P2
2022/07/22 00:00:20;;;;;;;16.33;10.20;;;17.90;1.00;;;;;;4990151;28;20185;-84
2022/07/22 00:02:46;;;;;;;13.93;9.53;;;17.90;1.00;;;;;;4996367;28;20202;-86
2022/07/22 00:05:12;;;;;;;18.20;9.60;;;17.90;1.00;;;;;;4991426;28;20655;-84
2022/07/22 00:07:38;;;;;;;18.53;9.83;;;17.90;1.00;;;;;;4993434;28;20247;-83
2022/07/22 00:10:06;;;;;;;10.93;8.63;;;17.90;1.00;;;;;;4993579;28;20197;-83
2022/07/22 00:12:32;;;;;;;16.60;9.20;;;18.00;1.00;;;;;;4994471;28;20513;-84
2022/07/22 00:14:58;;;;;;;19.33;10.20;;;18.00;1.00;;;;;;4992391;28;20989;-83
2022/07/22 00:17:23;;;;;;;13.83;9.07;;;17.90;1.00;;;;;;4989137;28;20205;-84
2022/07/22 00:19:49;;;;;;;19.87;8.20;;;17.90;1.00;;;;;;4991011;28;20193;-84
2022/07/22 00:22:14;;;;;;;11.00;7.40;;;17.90;1.00;;;;;;4990268;28;20184;-84
2022/07/22 00:24:40;;;;;;;11.60;6.80;;;17.90;1.00;;;;;;4993330;28;20190;-84
2022/07/22 00:27:05;;;;;;;12.40;7.30;;;17.90;1.00;;;;;;4991087;28;20208;-84
2022/07/22 00:29:31;;;;;;;19.87;7.60;;;17.90;1.00;;;;;;4989976;28;20280;-84
2022/07/22 00:31:56;;;;;;;20.13;8.87;;;17.90;1.00;;;;;;4992210;28;20227;-85
2022/07/22 00:34:22;;;;;;;14.63;7.33;;;17.90;1.00;;;;;;4988507;28;20205;-85
2022/07/22 00:36:47;;;;;;;15.73;6.20;;;17.90;1.00;;;;;;4992194;28;20708;-84
2022/07/22 00:39:15;;;;;;;9.70;7.20;;;17.90;1.00;;;;;;4991172;28;20725;-85
2022/07/22 00:41:40;;;;;;;11.30;6.73;;;17.90;1.00;;;;;;4990556;28;20192;-84
2022/07/22 00:44:07;;;;;;;14.03;7.73;;;17.90;1.00;;;;;;4988521;28;20454;-86
2022/07/22 00:46:35;;;;;;;11.13;6.30;;;17.90;1.00;;;;;;4990014;28;20221;-84
2022/07/22 00:49:02;;;;;;;15.00;6.90;;;17.90;1.00;;;;;;4991268;28;20769;-84
2022/07/22 00:51:29;;;;;;;10.90;6.17;;;17.90;1.00;;;;;;4991663;28;20444;-85
2022/07/22 00:53:56;;;;;;;13.30;6.60;;;17.80;1.00;;;;;;4984766;28;20456;-85
2022/07/22 00:56:24;;;;;;;12.47;7.37;;;17.80;1.00;;;;;;4992033;28;20462;-85
2022/07/22 00:58:52;;;;;;;12.40;7.80;;;17.80;1.00;;;;;;4995829;28;20445;-84
2022/07/22 01:01:18;;;;;;;14.80;8.17;;;17.70;1.00;;;;;;4995241;28;21032;-87
2022/07/22 01:03:43;;;;;;;10.80;7.97;;;17.70;1.00;;;;;;4995664;28;20448;-84
2022/07/22 01:06:10;;;;;;;11.20;8.13;;;17.70;1.00;;;;;;4992692;28;20209;-90
2022/07/22 01:08:37;;;;;;;15.17;8.30;;;17.60;1.00;;;;;;4993745;28;20689;-84
2022/07/22 01:11:14;;;;;;;12.77;8.60;;;17.60;1.00;;;;;;4994885;28;20526;-84
2022/07/22 01:13:40;;;;;;;13.90;8.30;;;17.70;1.00;;;;;;4992364;28;20457;-84
2022/07/22 01:16:08;;;;;;;15.90;8.50;;;17.70;1.00;;;;;;4995294;28;20488;-84
2022/07/22 01:18:35;;;;;;;20.20;10.50;;;17.60;1.00;;;;;;4993913;28;20469;-85
2022/07/22 01:21:00;;;;;;;17.30;8.63;;;17.70;1.00;;;;;;4994848;28;20431;-84
2022/07/22 01:23:26;;;;;;;17.30;9.60;;;17.60;1.00;;;;;;4991694;28;20438;-85
2022/07/22 01:25:52;;;;;;;14.33;8.20;;;17.60;1.00;;;;;;4996254;28;20185;-85
2022/07/22 01:28:17;;;;;;;12.90;9.10;;;17.60;1.00;;;;;;4994103;28;20443;-84
2022/07/22 01:30:43;;;;;;;13.93;7.73;;;17.60;1.00;;;;;;4994472;28;20688;-84
2022/07/22 01:33:08;;;;;;;14.70;8.47;;;17.60;1.00;;;;;;4992736;28;20185;-86
2022/07/22 01:35:34;;;;;;;12.93;8.13;;;17.60;1.00;;;;;;4996044;28;20214;-85
2022/07/22 01:38:00;;;;;;;12.47;9.30;;;17.60;1.00;;;;;;4993059;28;20208;-84
2022/07/22 01:40:25;;;;;;;14.37;8.30;;;17.60;1.00;;;;;;4993243;28;20189;-84
2022/07/22 01:42:51;;;;;;;19.60;8.83;;;17.60;1.00;;;;;;4993343;28;20223;-84
2022/07/22 01:45:16;;;;;;;13.80;8.10;;;17.50;1.00;;;;;;4993434;28;20735;-87
2022/07/22 01:47:42;;;;;;;11.03;6.83;;;17.50;1.00;;;;;;4994006;28;21540;-87
2022/07/22 01:50:11;;;;;;;12.50;7.47;;;17.60;1.00;;;;;;4993731;28;20185;-84
2022/07/22 01:52:37;;;;;;;11.40;8.23;;;17.50;1.00;;;;;;4998165;28;20181;-85
2022/07/22 01:55:04;;;;;;;12.10;7.97;;;17.60;1.00;;;;;;4994709;28;20480;-84
2022/07/22 01:57:29;;;;;;;14.20;7.47;;;17.60;1.00;;;;;;4992385;28;20495;-84
2022/07/22 01:59:55;;;;;;;16.47;8.30;;;17.60;1.00;;;;;;4993697;28;20440;-86
2022/07/22 02:02:20;;;;;;;12.03;6.90;;;17.60;1.00;;;;;;4993589;28;20205;-84
2022/07/22 02:04:46;;;;;;;16.77;7.50;;;17.60;1.00;;;;;;4994256;28;20190;-86
2022/07/22 02:07:11;;;;;;;8.50;7.20;;;17.60;1.00;;;;;;4991473;28;20492;-87
2022/07/22 02:09:37;;;;;;;10.50;7.60;;;17.60;1.00;;;;;;4998280;28;20190;-84
2022/07/22 02:12:03;;;;;;;10.53;7.57;;;17.60;1.00;;;;;;4991989;28;20649;-86
2022/07/22 02:14:28;;;;;;;15.30;8.50;;;17.60;1.00;;;;;;4991846;28;20222;-84
2022/07/22 02:16:54;;;;;;;12.20;7.10;;;17.60;1.00;;;;;;4994611;28;20209;-84
2022/07/22 02:19:19;;;;;;;12.20;7.03;;;17.60;1.00;;;;;;4994587;28;20684;-90
2022/07/22 02:21:45;;;;;;;13.90;7.40;;;17.60;1.00;;;;;;4995900;28;20294;-84
2022/07/22 02:24:10;;;;;;;10.37;7.13;;;17.60;1.00;;;;;;4992095;28;20185;-84
2022/07/22 02:26:36;;;;;;;13.37;7.43;;;17.60;1.00;;;;;;4990022;28;20736;-84
2022/07/22 02:29:02;;;;;;;10.07;7.57;;;17.60;1.00;;;;;;4996083;28;20688;-87
2022/07/22 02:31:28;;;;;;;14.03;8.07;;;17.60;1.00;;;;;;4992071;28;20302;-86
2022/07/22 02:33:53;;;;;;;10.77;7.60;;;17.50;1.00;;;;;;4995366;28;20450;-86
2022/07/22 02:36:19;;;;;;;10.13;6.57;;;17.60;1.00;;;;;;4993299;28;20679;-84
2022/07/22 02:38:44;;;;;;;11.30;7.17;;;17.60;1.00;;;;;;4997030;28;20612;-85
2022/07/22 02:41:10;;;;;;;16.50;7.77;;;17.50;1.00;;;;;;4996144;28;20184;-84
2022/07/22 02:43:36;;;;;;;12.20;7.37;;;17.60;1.00;;;;;;4990002;28;20269;-84
2022/07/22 02:46:01;;;;;;;18.37;8.57;;;17.60;1.00;;;;;;4992900;28;20555;-84
2022/07/22 02:48:27;;;;;;;18.90;7.57;;;17.60;1.00;;;;;;4992299;28;20320;-85
2022/07/22 02:50:52;;;;;;;12.50;7.50;;;17.60;1.00;;;;;;4993856;28;21535;-84
2022/07/22 02:53:18;;;;;;;12.93;7.53;;;17.50;1.00;;;;;;4990785;28;20186;-84
2022/07/22 02:55:44;;;;;;;12.00;7.77;;;17.50;1.00;;;;;;4994531;28;20242;-85
2022/07/22 02:58:09;;;;;;;12.53;6.97;;;17.50;1.00;;;;;;4995251;28;20216;-84
2022/07/22 03:00:37;;;;;;;20.47;7.80;;;17.50;1.00;;;;;;4991450;28;20184;-85
2022/07/22 03:03:04;;;;;;;10.00;7.20;;;17.50;1.00;;;;;;4992237;28;20207;-83
2022/07/22 03:05:30;;;;;;;13.10;6.90;;;17.50;1.00;;;;;;4991003;28;20458;-84
2022/07/22 03:07:55;;;;;;;12.33;7.47;;;17.50;1.00;;;;;;4991788;28;20929;-84
2022/07/22 03:10:21;;;;;;;16.97;8.03;;;17.50;1.00;;;;;;4991829;28;20438;-86
2022/07/22 03:12:46;;;;;;;13.90;8.63;;;17.50;1.00;;;;;;4989475;28;20849;-84
2022/07/22 03:15:12;;;;;;;17.20;8.77;;;17.50;1.00;;;;;;4993129;28;20208;-84
2022/07/22 03:17:38;;;;;;;14.17;8.40;;;17.50;1.00;;;;;;4989351;28;20204;-85
2022/07/22 03:20:05;;;;;;;20.80;8.50;;;17.50;1.00;;;;;;4990799;28;20196;-85
2022/07/22 03:22:31;;;;;;;15.43;8.50;;;17.50;1.00;;;;;;4988313;28;20438;-84
2022/07/22 03:24:56;;;;;;;15.40;8.53;;;17.50;1.00;;;;;;4993842;28;20944;-84
2022/07/22 03:27:23;;;;;;;12.30;7.73;;;17.50;1.00;;;;;;4990640;28;20307;-85
2022/07/22 03:29:48;;;;;;;16.80;8.47;;;17.40;1.00;;;;;;4991425;28;20272;-84
2022/07/22 03:32:14;;;;;;;12.90;8.47;;;17.40;1.00;;;;;;4987905;28;20597;-85
2022/07/22 03:34:39;;;;;;;12.97;8.00;;;17.40;1.00;;;;;;4996163;28;20213;-84
2022/07/22 03:37:05;;;;;;;11.67;8.17;;;17.50;1.00;;;;;;4989962;28;20641;-84
2022/07/22 03:39:30;;;;;;;16.63;8.27;;;17.50;1.00;;;;;;4990238;28;20664;-84
2022/07/22 03:41:56;;;;;;;9.93;8.50;;;17.50;1.00;;;;;;4990777;28;20483;-84
2022/07/22 03:44:22;;;;;;;14.83;8.10;;;17.60;1.00;;;;;;4990269;28;20414;-84
2022/07/22 03:46:47;;;;;;;18.87;9.80;;;17.60;1.00;;;;;;4993816;28;20263;-84
2022/07/22 03:49:13;;;;;;;12.67;8.57;;;17.60;1.00;;;;;;4990521;28;20275;-84
2022/07/22 03:51:38;;;;;;;21.40;9.37;;;17.60;1.00;;;;;;4987686;28;20196;-84
2022/07/22 03:54:04;;;;;;;14.80;9.20;;;17.70;1.00;;;;;;4992154;28;20650;-84
2022/07/22 03:56:29;;;;;;;16.00;9.60;;;17.70;1.00;;;;;;4989814;28;20689;-84
2022/07/22 03:58:55;;;;;;;13.50;9.40;;;17.70;1.00;;;;;;4993830;28;20212;-84
2022/07/22 04:01:20;;;;;;;17.33;10.47;;;17.70;1.00;;;;;;4994703;28;20248;-87
2022/07/22 04:03:46;;;;;;;16.07;9.80;;;17.70;1.00;;;;;;4991198;28;20218;-86
2022/07/22 04:06:12;;;;;;;12.63;9.63;;;17.70;1.00;;;;;;4990651;28;20208;-84
2022/07/22 04:08:37;;;;;;;18.70;9.50;;;17.80;1.00;;;;;;4996411;28;20207;-84
2022/07/22 04:11:03;;;;;;;15.30;9.17;;;17.80;1.00;;;;;;4991541;28;20268;-86
2022/07/22 04:13:28;;;;;;;15.33;10.43;;;17.80;1.00;;;;;;4989504;28;20245;-86
2022/07/22 04:15:54;;;;;;;13.33;9.73;;;17.80;1.00;;;;;;4989026;28;20245;-84
2022/07/22 04:18:19;;;;;;;12.83;9.47;;;17.80;1.00;;;;;;4989267;28;20193;-87
2022/07/22 04:20:46;;;;;;;14.93;9.63;;;17.80;1.00;;;;;;4990731;28;20590;-84
2022/07/22 04:23:12;;;;;;;19.80;11.07;;;17.80;1.00;;;;;;4990602;28;20634;-84
2022/07/22 04:25:38;;;;;;;16.57;11.70;;;17.80;1.00;;;;;;4992205;28;20534;-84
2022/07/22 04:28:03;;;;;;;36.00;26.20;;;17.80;1.00;;;;;;4990848;28;20201;-84
2022/07/22 04:30:29;;;;;;;48.17;42.77;;;17.90;1.00;;;;;;4993906;28;20444;-84
2022/07/22 04:32:55;;;;;;;56.13;47.97;;;17.90;1.00;;;;;;4991752;28;20195;-84
2022/07/22 04:35:20;;;;;;;57.97;50.50;;;17.90;1.00;;;;;;4992285;28;20554;-88
2022/07/22 04:37:46;;;;;;;44.10;39.30;;;18.00;1.00;;;;;;4990970;28;20210;-84
2022/07/22 04:40:12;;;;;;;27.33;21.20;;;18.00;1.00;;;;;;4990955;28;20235;-84
2022/07/22 04:42:37;;;;;;;16.30;11.23;;;18.00;1.00;;;;;;4990981;28;20248;-84
2022/07/22 04:45:03;;;;;;;17.73;10.93;;;18.00;1.00;;;;;;4990889;28;20959;-87
2022/07/22 04:47:29;;;;;;;16.40;11.50;;;18.10;1.00;;;;;;4989603;28;20214;-86
2022/07/22 04:49:55;;;;;;;24.07;14.27;;;18.10;1.00;;;;;;4992603;28;20536;-84
2022/07/22 04:52:20;;;;;;;25.57;19.93;;;18.10;1.00;;;;;;4990970;28;20681;-86
2022/07/22 04:54:46;;;;;;;26.30;19.50;;;18.20;1.00;;;;;;4991449;28;20300;-84
2022/07/22 04:57:11;;;;;;;26.57;18.23;;;18.20;1.00;;;;;;4995078;28;20303;-84
2022/07/22 04:59:37;;;;;;;27.70;16.00;;;18.20;1.00;;;;;;4995094;28;20658;-84
2022/07/22 05:02:03;;;;;;;26.27;20.83;;;18.20;1.00;;;;;;4993676;28;20182;-84
2022/07/22 05:04:28;;;;;;;19.80;13.10;;;18.30;1.00;;;;;;4991555;28;20200;-86
2022/07/22 05:06:54;;;;;;;20.60;12.50;;;18.30;1.00;;;;;;4991992;28;20219;-84
2022/07/22 05:09:20;;;;;;;33.47;24.40;;;18.30;1.00;;;;;;4991722;28;20442;-89
2022/07/22 05:11:46;;;;;;;27.43;11.10;;;18.40;1.00;;;;;;4997721;28;20195;-84
2022/07/22 05:14:11;;;;;;;13.20;9.70;;;18.40;1.00;;;;;;4996398;28;20218;-84
2022/07/22 05:16:37;;;;;;;19.07;14.67;;;18.40;1.00;;;;;;4990071;28;20213;-84
2022/07/22 05:19:04;;;;;;;33.03;26.67;;;18.40;1.00;;;;;;4997728;28;20771;-84
2022/07/22 05:21:30;;;;;;;45.93;41.03;;;18.40;1.00;;;;;;4996713;28;20522;-84
2022/07/22 05:23:55;;;;;;;43.37;33.60;;;18.40;1.00;;;;;;4991983;28;20477;-84
2022/07/22 05:26:21;;;;;;;22.13;16.70;;;18.40;1.00;;;;;;4996332;28;20198;-89
2022/07/22 05:28:46;;;;;;;20.50;11.17;;;18.40;1.00;;;;;;4989559;28;20188;-84
2022/07/22 05:31:12;;;;;;;15.17;9.50;;;18.40;1.00;;;;;;4994377;28;20194;-84
2022/07/22 05:33:38;;;;;;;17.13;10.70;;;18.40;1.00;;;;;;4990686;28;20195;-83
2022/07/22 05:36:05;;;;;;;14.93;9.33;;;18.40;1.00;;;;;;4992948;28;20254;-84
2022/07/22 05:38:33;;;;;;;17.60;9.70;;;18.50;1.00;;;;;;4997422;28;20253;-88
2022/07/22 05:40:59;;;;;;;12.17;7.90;;;18.50;1.00;;;;;;5002413;28;20553;-85
2022/07/22 05:43:24;;;;;;;10.43;7.60;;;18.50;1.00;;;;;;4999171;28;20677;-85
2022/07/22 05:45:50;;;;;;;9.23;6.50;;;18.40;1.00;;;;;;5003102;28;20190;-84
2022/07/22 05:48:16;;;;;;;9.10;6.27;;;18.50;1.00;;;;;;5003664;28;20219;-85
2022/07/22 05:50:42;;;;;;;11.70;5.43;;;18.50;1.00;;;;;;4998243;28;20188;-86
2022/07/22 05:53:07;;;;;;;10.27;5.33;;;18.50;1.00;;;;;;5003156;28;20443;-85
2022/07/22 05:55:33;;;;;;;6.33;4.00;;;18.50;99.90;;;;;;4999629;28;20573;-84
2022/07/22 05:57:58;;;;;;;6.33;4.07;;;18.60;99.90;;;;;;5003629;28;20758;-85
2022/07/22 06:00:24;;;;;;;12.10;4.70;;;18.60;99.90;;;;;;5002053;28;20664;-85
2022/07/22 06:02:49;;;;;;;10.70;4.40;;;18.60;99.90;;;;;;5000548;28;20213;-85
2022/07/22 06:05:15;;;;;;;8.00;3.60;;;18.70;99.90;;;;;;5002841;28;20249;-85
2022/07/22 06:07:40;;;;;;;8.97;3.33;;;18.70;99.90;;;;;;5019551;23;20654;-86
2022/07/22 06:10:06;;;;;;;8.27;3.00;;;18.60;99.90;;;;;;5018932;28;20207;-85
2022/07/22 06:12:32;;;;;;;11.53;3.53;;;18.60;99.90;;;;;;5024243;28;20569;-86
2022/07/22 06:14:57;;;;;;;7.90;3.53;;;18.60;99.90;;;;;;5039420;28;20520;-86
2022/07/22 06:17:23;;;;;;;5.43;3.40;;;18.70;99.90;;;;;;5015834;28;20243;-86
2022/07/22 06:19:49;;;;;;;8.53;2.67;;;18.70;99.90;;;;;;5009119;28;20203;-86
2022/07/22 06:22:17;;;;;;;7.20;2.90;;;18.80;99.90;;;;;;5013814;28;20223;-86
2022/07/22 06:24:43;;;;;;;10.53;3.73;;;18.90;99.90;;;;;;5013461;28;20640;-87
2022/07/22 06:27:08;;;;;;;6.53;2.80;;;19.00;99.90;;;;;;5001533;28;20442;-86
2022/07/22 06:29:34;;;;;;;6.30;2.83;;;19.10;99.90;;;;;;5009264;28;20455;-86
2022/07/22 06:31:59;;;;;;;9.80;2.37;;;19.20;52.10;;;;;;5004388;28;20734;-87
2022/07/22 06:34:25;;;;;;;3.73;2.47;;;19.20;1.00;;;;;;4998244;28;20279;-87
2022/07/22 06:36:51;;;;;;;8.57;3.10;;;19.20;1.00;;;;;;5003688;28;20729;-86
2022/07/22 06:39:16;;;;;;;7.53;3.00;;;19.30;99.90;;;;;;5011643;28;20214;-87
2022/07/22 06:41:42;;;;;;;6.60;2.37;;;19.30;99.90;;;;;;5010297;28;20187;-87
2022/07/22 06:44:07;;;;;;;9.90;3.30;;;19.40;99.90;;;;;;4999770;28;20194;-87
2022/07/22 06:46:33;;;;;;;5.37;2.47;;;19.40;99.90;;;;;;5002021;28;20194;-88
2022/07/22 06:48:59;;;;;;;9.50;3.30;;;19.50;1.00;;;;;;5005347;28;20936;-84
2022/07/22 06:51:24;;;;;;;4.37;2.27;;;19.60;1.00;;;;;;5001867;28;20652;-87
2022/07/22 06:53:50;;;;;;;6.53;3.00;;;19.60;99.90;;;;;;5010693;28;20235;-87
2022/07/22 06:56:15;;;;;;;7.40;2.70;;;19.70;8.10;;;;;;5000645;28;20217;-86
2022/07/22 06:58:41;;;;;;;5.73;2.67;;;19.80;1.00;;;;;;5005109;28;20579;-86
2022/07/22 07:01:07;;;;;;;7.80;3.23;;;19.90;99.90;;;;;;5002567;28;20185;-87
2022/07/22 07:03:32;;;;;;;5.17;2.60;;;20.00;22.60;;;;;;5007431;28;20190;-86
2022/07/22 07:05:58;;;;;;;6.87;2.77;;;20.10;99.90;;;;;;5005071;28;20207;-86
2022/07/22 07:08:23;;;;;;;9.27;2.70;;;20.10;99.90;;;;;;5007690;28;20297;-90
2022/07/22 07:10:49;;;;;;;7.97;3.00;;;20.20;99.90;;;;;;5007160;28;20275;-86
2022/07/22 07:13:14;;;;;;;3.07;1.90;;;20.20;99.90;;;;;;5001784;28;20273;-86
2022/07/22 07:15:40;;;;;;;5.80;2.50;;;20.20;99.90;;;;;;5002180;28;20211;-85
2022/07/22 07:18:05;;;;;;;7.60;3.07;;;20.10;99.90;;;;;;5001378;28;20707;-85
2022/07/22 07:20:31;;;;;;;5.70;3.00;;;20.20;1.00;;;;;;5000678;28;20202;-86
2022/07/22 07:23:01;;;;;;;11.90;4.37;;;20.30;1.00;;;;;;4987569;28;20275;-86
2022/07/22 07:25:26;;;;;;;5.83;3.10;;;20.30;99.90;;;;;;4990451;28;20191;-87
2022/07/22 07:27:52;;;;;;;9.73;2.60;;;20.30;99.90;;;;;;4992228;28;20881;-88
2022/07/22 07:30:17;;;;;;;9.20;3.40;;;20.50;99.90;;;;;;4997025;28;20215;-87
2022/07/22 07:32:43;;;;;;;5.57;2.77;;;20.50;1.00;;;;;;4994355;28;20273;-86
2022/07/22 07:35:10;;;;;;;7.10;2.63;;;20.60;1.00;;;;;;4992346;28;20203;-87
2022/07/22 07:37:38;;;;;;;5.43;2.97;;;20.70;1.00;;;;;;4991838;28;20614;-87
2022/07/22 07:40:05;;;;;;;8.40;2.97;;;20.80;99.90;;;;;;4991679;28;20439;-86
2022/07/22 07:42:30;;;;;;;5.03;2.33;;;21.00;99.90;;;;;;4990861;28;20570;-86
2022/07/22 07:44:56;;;;;;;11.33;2.57;;;21.10;99.90;;;;;;4994769;28;20433;-86
2022/07/22 07:47:22;;;;;;;5.63;2.40;;;21.20;99.90;;;;;;4993696;28;20604;-86
2022/07/22 07:49:48;;;;;;;4.60;2.30;;;21.40;1.00;;;;;;5002851;28;20300;-88
2022/07/22 07:52:15;;;;;;;4.70;2.00;;;21.50;1.00;;;;;;4991194;28;20188;-87
2022/07/22 07:54:40;;;;;;;10.50;2.47;;;21.60;1.00;;;;;;4997449;28;20604;-86
2022/07/22 07:57:07;;;;;;;5.83;2.27;;;21.70;1.00;;;;;;4995280;28;20437;-87
2022/07/22 07:59:33;;;;;;;4.10;2.17;;;21.90;99.90;;;;;;5001444;28;20681;-87
2022/07/22 08:01:59;;;;;;;3.30;1.73;;;22.00;99.90;;;;;;4995358;28;20460;-87
2022/07/22 08:04:24;;;;;;;4.00;2.20;;;22.20;99.90;;;;;;5000951;28;20194;-86
2022/07/22 08:06:50;;;;;;;4.47;2.00;;;22.30;99.90;;;;;;4996249;28;20189;-86
2022/07/22 08:09:15;;;;;;;4.83;2.10;;;22.50;99.90;;;;;;4999487;28;20218;-87
2022/07/22 08:11:41;;;;;;;4.23;1.93;;;22.60;1.00;;;;;;4994517;28;20216;-88
2022/07/22 08:14:07;;;;;;;4.57;2.83;;;22.70;1.00;;;;;;5000982;28;20799;-87
2022/07/22 08:16:32;;;;;;;10.77;2.20;;;22.80;1.00;;;;;;5004069;28;20546;-86
2022/07/22 08:18:58;;;;;;;3.03;2.20;;;22.60;1.00;;;;;;4998654;28;20214;-86
2022/07/22 08:21:25;;;;;;;6.20;2.90;;;22.50;1.00;;;;;;5002401;28;20624;-88
2022/07/22 08:23:51;;;;;;;6.50;2.00;;;22.50;1.00;;;;;;4998056;28;20468;-88
2022/07/22 08:26:16;;;;;;;4.03;2.20;;;22.60;1.00;;;;;;5000437;28;20436;-90
2022/07/22 08:28:42;;;;;;;4.77;1.90;;;22.80;1.00;;;;;;4999736;28;20238;-85
2022/07/22 08:31:07;;;;;;;8.13;2.80;;;23.00;1.00;;;;;;5015554;28;20277;-86
2022/07/22 08:33:33;;;;;;;4.80;2.07;;;23.20;1.00;;;;;;5017926;28;20231;-86
2022/07/22 08:35:58;;;;;;;4.37;2.40;;;23.40;1.00;;;;;;5018497;28;20238;-86
2022/07/22 08:38:24;;;;;;;4.00;2.57;;;23.60;1.00;;;;;;5011820;28;20214;-86
2022/07/22 08:40:52;;;;;;;3.17;2.20;;;23.70;1.00;;;;;;5015375;28;20178;-85
2022/07/22 08:43:17;;;;;;;3.30;2.40;;;23.90;1.00;;;;;;5006701;28;20185;-86
2022/07/22 08:45:43;;;;;;;8.90;2.40;;;24.20;99.90;;;;;;4994199;28;20445;-89
2022/07/22 08:48:09;;;;;;;8.93;2.83;;;24.30;99.90;;;;;;5002326;28;20554;-84
2022/07/22 08:50:34;;;;;;;4.60;2.70;;;24.40;99.90;;;;;;4996711;28;20197;-86
2022/07/22 08:53:00;;;;;;;7.70;2.43;;;24.60;99.90;;;;;;5000259;28;20186;-85
2022/07/22 08:55:25;;;;;;;6.17;2.67;;;24.90;99.90;;;;;;5003573;28;20289;-85
2022/07/22 08:57:51;;;;;;;3.97;2.87;;;25.10;99.90;;;;;;5005705;28;20197;-85
2022/07/22 09:00:20;;;;;;;4.53;2.50;;;25.30;99.90;;;;;;5009996;28;20180;-86
2022/07/22 09:02:46;;;;;;;4.23;2.70;;;25.50;99.90;;;;;;4996465;28;20191;-86
2022/07/22 09:05:14;;;;;;;6.13;3.20;;;25.70;99.90;;;;;;4994053;28;20938;-84
2022/07/22 09:07:42;;;;;;;7.77;4.10;;;25.90;99.90;;;;;;5000244;28;21036;-86
2022/07/22 09:10:19;;;;;;;5.50;3.83;;;25.80;99.90;;;;;;4999369;28;20449;-83
2022/07/22 09:12:57;;;;;;;6.33;3.50;;;25.80;99.90;;;;;;5004015;28;20441;-85
2022/07/22 09:15:39;;;;;;;4.00;3.10;;;25.60;99.90;;;;;;5002368;28;20474;-86
2022/07/22 09:18:06;;;;;;;4.40;3.57;;;25.50;99.90;;;;;;5005734;28;20809;-85
2022/07/22 09:20:32;;;;;;;5.73;3.80;;;25.80;99.90;;;;;;5010873;28;20444;-86
2022/07/22 09:22:58;;;;;;;8.33;4.33;;;26.50;99.90;;;;;;5011008;28;20437;-86
2022/07/22 09:25:30;;;;;;;4.03;3.60;;;27.40;99.90;;;;;;4997048;28;20489;-86
2022/07/22 09:28:20;;;;;;;3.77;2.80;;;28.50;99.90;;;;;;5006981;28;20297;-86
2022/07/22 09:30:53;;;;;;;5.27;3.20;;;33.60;99.90;;;;;;5000864;28;20501;-87
2022/07/22 09:33:19;;;;;;;5.63;4.00;;;34.20;99.90;;;;;;5003213;28;20438;-82
2022/07/22 09:35:46;;;;;;;4.03;3.17;;;33.50;99.90;;;;;;4997444;28;20462;-83
2022/07/22 09:38:14;;;;;;;6.03;3.17;;;33.00;99.90;;;;;;5001165;28;20454;-82
2022/07/22 09:40:45;;;;;;;4.50;3.30;;;32.50;99.90;;;;;;5000216;28;20481;-82
2022/07/22 09:43:15;;;;;;;4.77;3.30;;;32.40;99.90;;;;;;5004879;28;20430;-81
2022/07/22 09:45:59;;;;;;;14.20;5.13;;;32.20;99.90;;;;;;4999121;28;20506;-81
2022/07/22 09:48:25;;;;;;;7.10;3.73;;;31.60;99.90;;;;;;4997190;28;20465;-81
2022/07/22 09:50:52;;;;;;;5.47;4.10;;;31.10;99.90;;;;;;4997223;28;20450;-81
2022/07/22 09:53:20;;;;;;;3.53;3.23;;;30.40;99.90;;;;;;4996096;28;20857;-82
2022/07/22 09:55:46;;;;;;;4.07;3.70;;;29.90;99.90;;;;;;4994126;28;20466;-81
2022/07/22 09:58:12;;;;;;;4.50;4.07;;;29.50;99.90;;;;;;5017169;28;20535;-82
2022/07/22 10:00:40;;;;;;;4.00;3.60;;;29.10;99.90;;;;;;4996678;28;20474;-81
2022/07/22 10:03:07;;;;;;;4.93;3.63;;;28.70;99.90;;;;;;5000182;28;20841;-82
2022/07/22 10:05:36;;;;;;;5.30;4.03;;;28.40;99.90;;;;;;5000485;28;20434;-83
2022/07/22 10:08:04;;;;;;;6.03;5.53;;;28.10;99.90;;;;;;4996711;28;20480;-85
2022/07/22 10:10:31;;;;;;;4.90;3.80;;;27.80;99.90;;;;;;4996290;28;20438;-86
2022/07/22 10:12:59;;;;;;;5.47;4.20;;;27.60;99.90;;;;;;5001279;28;20442;-86
2022/07/22 10:15:31;;;;;;;5.10;4.53;;;27.40;99.90;;;;;;4986011;28;20470;-84
2022/07/22 10:18:00;;;;;;;4.97;4.57;;;27.20;99.90;;;;;;4989918;28;20473;-86
2022/07/22 10:20:28;;;;;;;5.07;4.57;;;26.80;99.90;;;;;;4992550;28;20439;-86
2022/07/22 10:22:58;;;;;;;5.00;4.50;;;26.70;99.90;;;;;;4993244;28;20427;-86
2022/07/22 10:25:30;;;;;;;5.30;4.80;;;26.40;99.90;;;;;;4991341;28;20827;-87
2022/07/22 10:28:00;;;;;;;6.80;6.20;;;26.20;99.90;;;;;;4994461;28;20512;-87
2022/07/22 10:30:28;;;;;;;6.30;5.80;;;26.30;99.90;;;;;;4991196;28;21065;-87
2022/07/22 10:33:06;;;;;;;6.90;5.70;;;26.20;99.90;;;;;;4999023;28;20433;-84
2022/07/22 10:35:34;;;;;;;7.00;5.90;;;26.50;99.90;;;;;;4995076;28;20473;-85
2022/07/22 10:38:02;;;;;;;7.40;6.70;;;26.80;99.90;;;;;;4995231;28;20553;-85
2022/07/22 10:40:46;;;;;;;10.13;6.47;;;27.00;99.90;;;;;;4997494;28;20796;-85
2022/07/22 10:43:12;;;;;;;8.23;5.77;;;27.30;99.90;;;;;;4994689;28;20859;-86
2022/07/22 10:45:53;;;;;;;7.73;6.60;;;27.60;99.90;;;;;;4994145;28;20486;-85
2022/07/22 10:48:24;;;;;;;6.87;5.87;;;28.10;99.90;;;;;;4991751;28;20920;-85
2022/07/22 10:51:04;;;;;;;10.30;6.10;;;28.70;99.90;;;;;;4993151;28;20435;-86
2022/07/22 10:53:51;;;;;;;7.30;6.40;;;28.70;99.90;;;;;;4992902;28;20439;-87
2022/07/22 10:56:26;;;;;;;6.77;6.07;;;28.60;99.90;;;;;;4991030;28;20526;-87
2022/07/22 10:59:14;;;;;;;7.20;5.90;;;28.80;99.90;;;;;;4989453;28;20457;-87
2022/07/22 11:01:43;;;;;;;7.73;5.83;;;29.30;99.90;;;;;;5000289;28;20455;-87
2022/07/22 11:04:10;;;;;;;6.63;5.90;;;31.70;99.90;;;;;;4994004;28;20449;-88
2022/07/22 11:06:36;;;;;;;8.57;6.57;;;33.50;99.90;;;;;;4993294;28;20434;-88
2022/07/22 11:09:07;;;;;;;4.97;4.20;;;34.90;99.90;;;;;;4987272;28;21225;-85
2022/07/22 11:11:41;;;;;;;6.10;4.30;;;35.80;99.90;;;;;;4997042;28;20226;-85
2022/07/22 11:14:30;;;;;;;5.27;4.23;;;36.20;99.90;;;;;;4994872;28;20481;-85
2022/07/22 11:17:16;;;;;;;7.10;6.40;;;36.20;99.90;;;;;;4992489;28;20438;-85
2022/07/22 11:19:41;;;;;;;9.83;7.10;;;34.80;96.70;;;;;;4993077;28;20868;-84
2022/07/22 11:22:12;;;;;;;11.37;6.40;;;33.30;93.30;;;;;;4990618;28;20451;-84
2022/07/22 11:24:39;;;;;;;7.70;6.90;;;33.10;92.80;;;;;;4991896;28;20242;-84
2022/07/22 11:27:13;;;;;;;11.00;6.33;;;32.80;92.60;;;;;;4994188;28;20435;-87
2022/07/22 11:29:42;;;;;;;5.87;5.27;;;33.20;92.60;;;;;;4996601;28;20455;-87
2022/07/22 11:32:10;;;;;;;8.13;5.80;;;32.80;91.90;;;;;;4992848;28;20434;-86
2022/07/22 11:34:37;;;;;;;7.43;5.20;;;32.80;91.70;;;;;;4996551;28;20441;-86
2022/07/22 11:37:03;;;;;;;11.97;7.10;;;32.70;90.90;;;;;;4993768;28;20497;-88
2022/07/22 11:39:30;;;;;;;7.13;6.40;;;32.70;90.30;;;;;;4991318;28;20464;-86
2022/07/22 11:41:58;;;;;;;7.10;5.93;;;33.00;91.00;;;;;;4993321;28;20194;-87
2022/07/22 11:44:26;;;;;;;6.93;6.23;;;33.50;90.80;;;;;;4994949;28;20470;-87
2022/07/22 11:46:51;;;;;;;6.23;5.63;;;33.70;89.60;;;;;;4993978;28;20445;-88
2022/07/22 11:49:20;;;;;;;7.60;6.60;;;33.90;88.40;;;;;;4994896;28;20461;-87
2022/07/22 11:51:45;;;;;;;10.47;7.33;;;33.70;86.00;;;;;;4996857;28;20191;-87
2022/07/22 11:54:11;;;;;;;10.00;6.93;;;33.40;83.10;;;;;;4989815;28;20450;-87
2022/07/22 11:56:37;;;;;;;7.63;5.87;;;33.10;81.10;;;;;;4991107;28;20192;-87
2022/07/22 11:59:08;;;;;;;8.43;7.40;;;32.80;81.30;;;;;;4991056;28;20207;-86
2022/07/22 12:01:36;;;;;;;9.03;7.33;;;32.60;78.40;;;;;;4994303;28;20179;-87
2022/07/22 12:04:07;;;;;;;7.93;7.10;;;33.20;93.80;;;;;;4993385;28;20431;-86
2022/07/22 12:06:37;;;;;;;7.13;5.70;;;33.50;79.40;;;;;;5005674;28;20431;-87
2022/07/22 12:11:41;;;;;;;5.83;4.20;;;34.90;80.00;;;;;;5019246;22;20537;-84
2022/07/22 12:14:09;;;;;;;3.93;3.60;;;35.30;79.30;;;;;;4992271;28;20466;-84
2022/07/22 12:16:36;;;;;;;5.60;4.50;;;35.60;75.20;;;;;;4995163;28;20490;-84
2022/07/22 12:19:01;;;;;;;8.67;7.87;;;35.50;72.00;;;;;;4993730;28;20564;-84
2022/07/22 12:21:30;;;;;;;9.67;8.77;;;35.00;66.30;;;;;;4980246;28;20564;-84
2022/07/22 12:24:07;;;;;;;8.17;7.00;;;34.10;62.00;;;;;;4974662;28;20180;-83
2022/07/22 12:26:44;;;;;;;9.40;6.50;;;33.50;77.60;;;;;;4974488;28;21009;-83
2022/07/22 12:29:32;;;;;;;7.00;6.13;;;33.30;59.50;;;;;;4978364;28;20439;-82
2022/07/22 12:32:04;;;;;;;7.30;5.77;;;33.00;59.80;;;;;;4982606;28;20422;-84
2022/07/22 12:34:36;;;;;;;6.53;5.80;;;33.40;61.30;;;;;;4977092;28;20454;-83
2022/07/22 12:37:25;;;;;;;6.83;5.30;;;33.30;60.20;;;;;;4974753;28;20447;-83
2022/07/22 12:39:58;;;;;;;6.53;5.93;;;33.50;59.40;;;;;;4979790;28;20458;-83
2022/07/22 12:42:26;;;;;;;7.97;5.30;;;33.40;58.40;;;;;;4975472;28;20482;-83
2022/07/22 12:45:11;;;;;;;7.00;6.20;;;33.60;58.30;;;;;;4974684;28;20471;-85
2022/07/22 12:47:44;;;;;;;6.50;5.90;;;33.70;57.80;;;;;;4984136;28;20438;-83